VDPP/PNH METAR and TAF weather

Enter ICAO airport designator
Station Type Date Time Source
VDPP METAR 2022/12/04 12:30 UTC NOAA

VDPP 041230Z 05002KT 9000 SCT017 29/24 Q1009


Station Type Date Time Source
VDPP Decoded METAR 2022/12/04 12:30 UTC NOAA

Phnom-Penh / Pochentong, Cambodia (VDPP) 11-33N 104-51E 10M
Dec 04, 2022 - 07:30 AM EST / 2022.12.04 1230 UTC
Wind: from the NE (050 degrees) at 2 MPH (2 KT):0
Visibility: 5 mile(s):0
Sky conditions: partly cloudy
Temperature: 84 F (29 C)
Dew Point: 75 F (24 C)
Relative Humidity: 74%
Pressure (altimeter): 29.80 in. Hg (1009 hPa)
ob: VDPP 041230Z 05002KT 9000 SCT017 29/24 Q1009
cycle: 12

Station Type Date Time Source
VDPP TAF 2022/12/04 12:00 UTC NOAA

TAF VDPP 041100Z 0412/0506 02007KT 9999 SCT017 SCT040
TEMPO 0412/0417 SCT015 FEW017CB

Example: see airport list